Time;durP1;ratioP1;P1;durP2;ratioP2;P2;SDS_P1;SDS_P2;PMS_P1;PMS_P2;Temp;Humidity;BMP_temperature;BMP_pressure;BME280_temperature;BME280_humidity;BME280_pressure;Samples;Min_cycle;Max_cycle;Signal;HPM_P1;HPM_P2
2022/08/18 00:01:40;;;;;;;62.20;5.60;;;;;;;;;;5118083;28;20926;-69
2022/08/18 00:04:07;;;;;;;62.07;5.40;;;;;;;;;;5116845;28;20455;-68
2022/08/18 00:06:35;;;;;;;61.50;5.40;;;;;;;;;;5117958;28;20448;-69
2022/08/18 00:09:05;;;;;;;60.67;5.07;;;;;;;;;;5119014;28;20439;-68
2022/08/18 00:11:33;;;;;;;62.03;5.60;;;;;;;;;;5119258;28;20472;-69
2022/08/18 00:14:02;;;;;;;61.87;5.10;;;;;;;;;;5119191;28;21004;-69
2022/08/18 00:16:29;;;;;;;61.97;5.60;;;;;;;;;;5118204;28;20958;-69
2022/08/18 00:18:56;;;;;;;61.37;5.30;;;;;;;;;;5118247;28;20484;-69
2022/08/18 00:21:23;;;;;;;60.60;5.03;;;;;;;;;;5116320;28;20525;-69
2022/08/18 00:23:50;;;;;;;62.63;5.43;;;;;;;;;;5115705;28;20457;-69
2022/08/18 00:26:18;;;;;;;61.23;5.43;;;;;;;;;;5115006;28;20447;-69
2022/08/18 00:28:45;;;;;;;60.70;5.33;;;;;;;;;;5114075;28;20943;-69
2022/08/18 00:31:13;;;;;;;62.47;5.37;;;;;;;;;;5114452;28;20470;-69
2022/08/18 00:33:42;;;;;;;62.97;6.10;;;;;;;;;;5114601;28;20816;-69
2022/08/18 00:36:09;;;;;;;60.13;4.80;;;;;;;;;;5114438;28;20511;-69
2022/08/18 00:38:36;;;;;;;61.10;5.50;;;;;;;;;;5113997;28;20439;-69
2022/08/18 00:41:04;;;;;;;63.47;6.23;;;;;;;;;;5114537;28;20445;-69
2022/08/18 00:43:38;;;;;;;63.53;5.87;;;;;;;;;;5114061;28;20449;-69
2022/08/18 00:46:07;;;;;;;61.43;5.03;;;;;;;;;;5114212;28;20450;-69
2022/08/18 00:48:35;;;;;;;64.90;6.23;;;;;;;;;;5113542;28;20453;-69
2022/08/18 00:51:05;;;;;;;61.93;5.60;;;;;;;;;;5114913;28;20497;-69
2022/08/18 00:53:34;;;;;;;60.57;4.97;;;;;;;;;;5115463;28;20966;-69
2022/08/18 00:56:05;;;;;;;61.10;4.90;;;;;;;;;;5116161;28;20444;-68
2022/08/18 00:58:35;;;;;;;61.07;4.93;;;;;;;;;;5115333;28;20518;-69
2022/08/18 01:01:03;;;;;;;63.70;6.37;;;;;;;;;;5114543;28;20435;-69
2022/08/18 01:03:32;;;;;;;61.23;5.40;;;;;;;;;;5114231;28;20537;-70
2022/08/18 01:06:02;;;;;;;62.30;5.37;;;;;;;;;;5113882;28;20934;-70
2022/08/18 01:08:30;;;;;;;62.57;6.63;;;;;;;;;;5113989;28;20453;-67
2022/08/18 01:11:00;;;;;;;61.10;5.53;;;;;;;;;;5113139;28;20452;-69
2022/08/18 01:13:28;;;;;;;63.60;6.10;;;;;;;;;;5112757;28;20457;-69
2022/08/18 01:15:55;;;;;;;61.40;6.23;;;;;;;;;;5113472;28;20872;-69
2022/08/18 01:24:11;;;;;;;62.07;6.00;;;;;;;;;;5105316;28;20538;-69
2022/08/18 01:26:38;;;;;;;61.43;5.90;;;;;;;;;;5113330;28;20475;-69
2022/08/18 01:29:10;;;;;;;62.57;5.90;;;;;;;;;;5113358;28;20466;-69
2022/08/18 01:31:38;;;;;;;61.90;5.87;;;;;;;;;;5114180;28;20520;-69
2022/08/18 01:34:06;;;;;;;61.87;6.40;;;;;;;;;;5113804;28;20444;-69
2022/08/18 01:36:36;;;;;;;60.67;4.87;;;;;;;;;;5113535;28;20449;-68
2022/08/18 01:39:04;;;;;;;61.77;6.07;;;;;;;;;;5113255;28;20445;-68
2022/08/18 01:41:32;;;;;;;62.77;6.00;;;;;;;;;;5114413;28;20472;-68
2022/08/18 01:44:00;;;;;;;63.23;5.63;;;;;;;;;;5114996;28;20450;-68
2022/08/18 01:46:28;;;;;;;60.67;5.40;;;;;;;;;;5115770;28;20538;-69
2022/08/18 01:48:57;;;;;;;60.50;5.47;;;;;;;;;;5114091;28;21010;-68
2022/08/18 01:51:24;;;;;;;60.97;5.77;;;;;;;;;;5116188;28;21039;-69
2022/08/18 01:53:51;;;;;;;62.07;5.23;;;;;;;;;;5116196;28;20543;-68
2022/08/18 01:56:18;;;;;;;61.00;5.50;;;;;;;;;;5116992;28;20474;-69
2022/08/18 01:58:47;;;;;;;63.83;6.17;;;;;;;;;;5116427;28;21020;-69
2022/08/18 02:01:15;;;;;;;62.80;5.83;;;;;;;;;;5116161;28;20573;-69
2022/08/18 02:03:45;;;;;;;60.97;5.00;;;;;;;;;;5116371;28;20837;-69
2022/08/18 02:06:13;;;;;;;63.67;5.70;;;;;;;;;;5116401;28;20454;-69
2022/08/18 02:08:40;;;;;;;62.70;6.53;;;;;;;;;;5115713;28;20444;-69
2022/08/18 02:11:08;;;;;;;61.00;5.97;;;;;;;;;;5115707;28;20455;-68
2022/08/18 02:13:35;;;;;;;62.47;6.30;;;;;;;;;;5115124;28;20456;-68
2022/08/18 02:16:04;;;;;;;61.37;5.50;;;;;;;;;;5114936;28;20443;-68
2022/08/18 02:18:32;;;;;;;61.13;5.10;;;;;;;;;;5114826;28;20788;-69
2022/08/18 02:21:06;;;;;;;61.90;6.33;;;;;;;;;;5114253;28;20478;-67
2022/08/18 02:23:33;;;;;;;61.43;5.40;;;;;;;;;;5115800;28;21024;-68
2022/08/18 02:26:04;;;;;;;61.57;6.10;;;;;;;;;;5118309;28;21010;-69
2022/08/18 02:28:31;;;;;;;64.60;6.57;;;;;;;;;;5117869;28;20445;-68
2022/08/18 02:30:58;;;;;;;61.83;6.33;;;;;;;;;;5117608;28;20448;-67
2022/08/18 02:33:26;;;;;;;64.07;6.23;;;;;;;;;;5117146;28;20449;-68
2022/08/18 02:35:54;;;;;;;61.70;6.37;;;;;;;;;;5117416;28;20450;-68
2022/08/18 02:38:21;;;;;;;61.17;5.60;;;;;;;;;;5116729;28;20447;-69
2022/08/18 02:40:54;;;;;;;63.60;7.20;;;;;;;;;;5116230;28;20487;-68
2022/08/18 02:43:21;;;;;;;61.43;5.70;;;;;;;;;;5116580;28;20454;-68
2022/08/18 02:45:48;;;;;;;61.73;6.00;;;;;;;;;;5116185;28;20455;-67
2022/08/18 02:48:16;;;;;;;61.50;5.70;;;;;;;;;;5116501;28;20454;-68
2022/08/18 02:50:47;;;;;;;60.20;4.90;;;;;;;;;;5116283;28;20522;-67
2022/08/18 02:53:20;;;;;;;62.30;6.47;;;;;;;;;;5115912;28;21003;-68
2022/08/18 02:55:47;;;;;;;60.87;6.20;;;;;;;;;;5116092;28;20447;-67
2022/08/18 02:58:15;;;;;;;62.40;6.60;;;;;;;;;;5116021;28;20465;-67
2022/08/18 03:00:42;;;;;;;64.60;6.60;;;;;;;;;;5115566;28;20536;-68
2022/08/18 03:03:09;;;;;;;61.20;5.77;;;;;;;;;;5116053;28;20470;-68
2022/08/18 03:05:36;;;;;;;62.37;6.33;;;;;;;;;;5115647;28;20943;-68
2022/08/18 03:08:05;;;;;;;61.13;5.77;;;;;;;;;;5115860;28;20452;-68
2022/08/18 03:10:32;;;;;;;62.10;6.03;;;;;;;;;;5115364;28;20531;-68
2022/08/18 03:12:59;;;;;;;62.83;6.77;;;;;;;;;;5115300;28;20830;-68
2022/08/18 03:15:26;;;;;;;61.77;5.97;;;;;;;;;;5115389;28;20450;-68
2022/08/18 03:17:54;;;;;;;62.97;6.10;;;;;;;;;;5115617;28;20474;-68
2022/08/18 03:20:21;;;;;;;61.60;5.70;;;;;;;;;;5115071;28;21021;-68
2022/08/18 03:22:48;;;;;;;62.67;6.00;;;;;;;;;;5115257;28;20468;-67
2022/08/18 03:25:17;;;;;;;63.07;5.83;;;;;;;;;;5115525;28;20448;-67
2022/08/18 03:27:44;;;;;;;63.07;6.47;;;;;;;;;;5115132;28;20443;-67
2022/08/18 03:30:11;;;;;;;62.30;6.60;;;;;;;;;;5115168;28;20456;-68
2022/08/18 03:32:38;;;;;;;61.30;5.47;;;;;;;;;;5115278;28;20470;-67
2022/08/18 03:35:06;;;;;;;61.50;5.83;;;;;;;;;;5114025;28;20959;-68
2022/08/18 03:37:33;;;;;;;62.70;5.97;;;;;;;;;;5115198;28;20931;-68
2022/08/18 03:40:00;;;;;;;61.80;6.20;;;;;;;;;;5115281;28;20477;-67
2022/08/18 03:42:29;;;;;;;60.50;6.17;;;;;;;;;;5115226;28;20840;-67
2022/08/18 03:44:56;;;;;;;61.80;5.70;;;;;;;;;;5115136;28;20963;-68
2022/08/18 03:47:23;;;;;;;62.40;6.67;;;;;;;;;;5115403;28;20443;-68
2022/08/18 03:49:50;;;;;;;62.07;6.23;;;;;;;;;;5115491;28;20449;-67
2022/08/18 03:52:17;;;;;;;63.27;6.90;;;;;;;;;;5115130;28;20464;-68
2022/08/18 03:54:45;;;;;;;61.70;6.00;;;;;;;;;;5114975;28;20455;-67
2022/08/18 03:57:12;;;;;;;61.37;5.87;;;;;;;;;;5115293;28;20899;-67
2022/08/18 03:59:42;;;;;;;61.77;5.90;;;;;;;;;;5114714;28;20447;-67
2022/08/18 04:02:10;;;;;;;61.10;6.27;;;;;;;;;;5115233;28;20932;-67
2022/08/18 04:04:37;;;;;;;62.77;6.00;;;;;;;;;;5114831;28;20453;-68
2022/08/18 04:07:07;;;;;;;61.97;6.50;;;;;;;;;;5115235;28;20449;-67
2022/08/18 04:09:35;;;;;;;62.70;6.27;;;;;;;;;;5115357;28;20444;-68
2022/08/18 04:12:10;;;;;;;61.17;5.90;;;;;;;;;;5115105;28;21009;-68
2022/08/18 04:14:37;;;;;;;62.20;7.70;;;;;;;;;;5115632;28;20451;-67
2022/08/18 04:17:06;;;;;;;67.83;6.73;;;;;;;;;;5115926;28;20444;-67
2022/08/18 04:19:33;;;;;;;62.60;5.93;;;;;;;;;;5115599;28;20541;-67
2022/08/18 04:22:01;;;;;;;62.50;5.20;;;;;;;;;;5115248;28;20518;-68
2022/08/18 04:24:30;;;;;;;60.20;4.47;;;;;;;;;;5115858;28;20446;-67
2022/08/18 04:26:58;;;;;;;61.20;5.50;;;;;;;;;;5115880;28;20494;-67
2022/08/18 04:29:25;;;;;;;61.07;5.97;;;;;;;;;;5115327;28;20451;-67
2022/08/18 04:31:52;;;;;;;60.90;5.20;;;;;;;;;;5115214;28;20471;-67
2022/08/18 04:34:22;;;;;;;60.90;5.53;;;;;;;;;;5115491;28;20440;-66
2022/08/18 04:36:53;;;;;;;62.47;5.57;;;;;;;;;;5115656;28;20442;-66
2022/08/18 04:39:20;;;;;;;61.10;5.30;;;;;;;;;;5115272;28;20490;-67
2022/08/18 04:41:48;;;;;;;60.40;4.70;;;;;;;;;;5115248;28;20488;-67
2022/08/18 04:44:16;;;;;;;60.37;4.97;;;;;;;;;;5115152;28;20614;-67
2022/08/18 04:46:45;;;;;;;62.50;5.50;;;;;;;;;;5114811;28;20448;-68
2022/08/18 04:49:12;;;;;;;62.10;5.50;;;;;;;;;;5114916;28;20454;-67
2022/08/18 04:51:42;;;;;;;63.73;5.20;;;;;;;;;;5115367;28;20547;-67
2022/08/18 04:54:08;;;;;;;62.80;4.47;;;;;;;;;;5115215;28;20476;-67
2022/08/18 04:56:38;;;;;;;62.10;6.10;;;;;;;;;;5115017;28;20546;-67
2022/08/18 04:59:07;;;;;;;62.37;5.00;;;;;;;;;;5114757;28;20447;-68
2022/08/18 05:01:36;;;;;;;63.20;5.87;;;;;;;;;;5114993;28;20860;-68
2022/08/18 05:04:03;;;;;;;60.30;4.60;;;;;;;;;;5115532;28;20452;-67
2022/08/18 05:06:31;;;;;;;61.70;5.07;;;;;;;;;;5115436;28;20446;-67
2022/08/18 05:09:01;;;;;;;61.80;5.10;;;;;;;;;;5114832;28;20998;-67
2022/08/18 05:11:32;;;;;;;63.27;5.93;;;;;;;;;;5114926;28;21013;-67
2022/08/18 05:13:59;;;;;;;64.70;4.87;;;;;;;;;;5114884;28;21085;-67
2022/08/18 05:16:26;;;;;;;61.80;5.70;;;;;;;;;;5115160;28;20812;-67
2022/08/18 05:18:53;;;;;;;61.77;5.60;;;;;;;;;;5114489;28;20437;-67
2022/08/18 05:21:21;;;;;;;61.00;5.17;;;;;;;;;;5114525;28;20869;-67
2022/08/18 05:23:50;;;;;;;60.77;5.73;;;;;;;;;;5114607;28;20543;-67
2022/08/18 05:26:19;;;;;;;61.37;4.90;;;;;;;;;;5114298;28;20451;-67
2022/08/18 05:28:46;;;;;;;62.90;5.27;;;;;;;;;;5113946;28;20449;-67
2022/08/18 05:31:14;;;;;;;60.70;4.93;;;;;;;;;;5114525;28;20457;-67
2022/08/18 05:33:42;;;;;;;62.30;6.43;;;;;;;;;;5114449;28;20449;-67
2022/08/18 05:36:13;;;;;;;60.07;4.93;;;;;;;;;;5114420;28;20444;-67
2022/08/18 05:38:45;;;;;;;62.53;6.20;;;;;;;;;;5113962;28;20464;-66
2022/08/18 05:41:14;;;;;;;60.30;5.10;;;;;;;;;;5114048;28;20534;-67
2022/08/18 05:43:43;;;;;;;62.10;6.23;;;;;;;;;;5114145;28;20446;-67
2022/08/18 05:46:11;;;;;;;60.53;5.10;;;;;;;;;;5113706;28;20463;-67
2022/08/18 05:48:38;;;;;;;61.87;5.37;;;;;;;;;;5113411;28;20452;-67
2022/08/18 05:51:10;;;;;;;60.80;5.60;;;;;;;;;;5114157;28;20446;-67
2022/08/18 05:59:12;;;;;;;60.87;5.10;;;;;;;;;;5112528;28;21072;-67
2022/08/18 06:01:40;;;;;;;60.60;5.63;;;;;;;;;;5112765;28;20495;-67
2022/08/18 06:04:09;;;;;;;60.80;4.70;;;;;;;;;;5113519;28;20500;-66
2022/08/18 06:06:37;;;;;;;61.57;5.37;;;;;;;;;;5113835;28;20455;-67
2022/08/18 06:09:08;;;;;;;61.70;5.60;;;;;;;;;;5112626;28;20440;-67
2022/08/18 06:11:35;;;;;;;61.03;5.57;;;;;;;;;;5112355;28;20821;-67
2022/08/18 06:14:03;;;;;;;62.80;5.50;;;;;;;;;;5112580;28;20448;-67
2022/08/18 06:16:43;;;;;;;60.97;5.37;;;;;;;;;;5112428;28;20551;-67
2022/08/18 06:19:17;;;;;;;61.00;5.60;;;;;;;;;;5112595;28;20448;-67
2022/08/18 06:21:49;;;;;;;61.37;5.67;;;;;;;;;;5112405;28;20482;-67
2022/08/18 06:24:19;;;;;;;61.27;5.93;;;;;;;;;;5112340;28;20456;-67
2022/08/18 06:26:49;;;;;;;59.80;4.83;;;;;;;;;;5112153;28;20496;-67
2022/08/18 06:29:23;;;;;;;61.10;4.80;;;;;;;;;;5112099;28;20456;-66
2022/08/18 06:31:57;;;;;;;61.10;6.13;;;;;;;;;;5112169;28;20500;-67
2022/08/18 06:34:31;;;;;;;61.87;5.33;;;;;;;;;;5112215;28;20449;-67
2022/08/18 06:37:01;;;;;;;60.23;4.53;;;;;;;;;;5112612;28;20446;-67
2022/08/18 06:39:32;;;;;;;62.67;6.13;;;;;;;;;;5111627;28;20449;-67
2022/08/18 06:41:59;;;;;;;63.30;6.17;;;;;;;;;;5111872;28;21006;-67
2022/08/18 06:44:33;;;;;;;63.07;5.70;;;;;;;;;;5112130;28;20452;-68
2022/08/18 06:47:07;;;;;;;61.37;5.57;;;;;;;;;;5111922;28;20454;-67
2022/08/18 06:49:39;;;;;;;61.60;6.07;;;;;;;;;;5112115;28;20437;-68
2022/08/18 06:52:20;;;;;;;61.40;5.47;;;;;;;;;;5112355;28;20483;-67
2022/08/18 06:54:47;;;;;;;60.97;5.43;;;;;;;;;;5111871;28;20463;-67
2022/08/18 06:57:23;;;;;;;63.10;5.93;;;;;;;;;;5112144;28;20575;-67
2022/08/18 06:59:55;;;;;;;62.67;5.90;;;;;;;;;;5111692;28;20455;-68
2022/08/18 07:02:25;;;;;;;61.37;5.53;;;;;;;;;;5111655;28;20491;-67
2022/08/18 07:05:00;;;;;;;61.87;5.60;;;;;;;;;;5111936;28;20838;-66
2022/08/18 07:07:31;;;;;;;61.47;5.90;;;;;;;;;;5112065;28;20444;-67
2022/08/18 07:09:58;;;;;;;60.37;5.07;;;;;;;;;;5113848;28;20445;-67
2022/08/18 07:12:27;;;;;;;61.20;5.10;;;;;;;;;;5115621;28;20556;-67
2022/08/18 07:14:55;;;;;;;62.73;5.80;;;;;;;;;;5115827;28;20441;-67
2022/08/18 07:17:25;;;;;;;62.80;6.00;;;;;;;;;;5115695;28;20443;-67
2022/08/18 07:20:04;;;;;;;61.87;6.27;;;;;;;;;;5115091;28;20445;-67
2022/08/18 07:22:31;;;;;;;60.70;5.40;;;;;;;;;;5115315;28;20489;-66
2022/08/18 07:25:00;;;;;;;63.20;5.43;;;;;;;;;;5115740;28;21004;-67
2022/08/18 07:27:44;;;;;;;61.30;5.10;;;;;;;;;;5115844;28;20457;-67
2022/08/18 07:30:13;;;;;;;61.80;5.67;;;;;;;;;;5115555;28;20449;-66
2022/08/18 07:32:45;;;;;;;62.40;6.90;;;;;;;;;;5115290;28;20465;-67
2022/08/18 07:35:13;;;;;;;63.50;6.20;;;;;;;;;;5115493;28;20450;-66
2022/08/18 07:37:43;;;;;;;61.90;6.20;;;;;;;;;;5115119;28;20835;-67
2022/08/18 07:40:18;;;;;;;60.60;5.50;;;;;;;;;;5115100;28;20453;-67
2022/08/18 07:42:49;;;;;;;60.73;5.20;;;;;;;;;;5115317;28;20512;-67
2022/08/18 07:45:19;;;;;;;59.97;4.90;;;;;;;;;;5116764;28;20445;-67
2022/08/18 07:47:50;;;;;;;62.30;5.50;;;;;;;;;;5115918;28;20465;-67
2022/08/18 07:50:18;;;;;;;59.00;4.27;;;;;;;;;;5115390;28;20442;-66
2022/08/18 07:52:47;;;;;;;61.20;5.60;;;;;;;;;;5114993;28;20454;-67
2022/08/18 07:55:23;;;;;;;61.77;5.57;;;;;;;;;;5115189;28;20456;-66
2022/08/18 07:57:53;;;;;;;62.00;5.97;;;;;;;;;;5114849;28;20445;-66
2022/08/18 08:00:22;;;;;;;62.90;6.20;;;;;;;;;;5114379;28;20442;-67
2022/08/18 08:02:58;;;;;;;66.87;6.03;;;;;;;;;;5114944;28;20486;-67
2022/08/18 08:05:36;;;;;;;60.90;5.47;;;;;;;;;;5114973;28;20441;-67
2022/08/18 08:08:06;;;;;;;60.10;4.77;;;;;;;;;;5114704;28;20938;-67
2022/08/18 08:10:35;;;;;;;60.03;4.80;;;;;;;;;;5114862;28;20467;-67
2022/08/18 08:13:13;;;;;;;63.87;5.07;;;;;;;;;;5115053;28;20856;-67
2022/08/18 08:15:48;;;;;;;61.30;5.03;;;;;;;;;;5115771;28;20451;-67
2022/08/18 08:18:19;;;;;;;61.60;5.30;;;;;;;;;;5114763;28;20456;-66
2022/08/18 08:20:49;;;;;;;60.43;5.80;;;;;;;;;;5113882;28;20445;-66
2022/08/18 08:23:26;;;;;;;61.47;5.53;;;;;;;;;;5114690;28;20438;-66
2022/08/18 08:26:08;;;;;;;62.00;4.90;;;;;;;;;;5115014;28;20813;-67
2022/08/18 08:28:40;;;;;;;60.17;4.70;;;;;;;;;;5112644;27;20458;-67
2022/08/18 08:31:10;;;;;;;60.47;5.40;;;;;;;;;;5115633;28;20441;-67
2022/08/18 08:33:41;;;;;;;59.97;4.60;;;;;;;;;;5115857;28;20441;-67
2022/08/18 08:36:11;;;;;;;60.70;4.47;;;;;;;;;;5115432;28;20445;-67
2022/08/18 08:38:43;;;;;;;59.90;4.53;;;;;;;;;;5114920;28;20505;-67
2022/08/18 08:41:12;;;;;;;60.50;4.40;;;;;;;;;;5116195;28;20468;-67
2022/08/18 08:43:41;;;;;;;61.83;6.03;;;;;;;;;;5116841;28;20460;-67
2022/08/18 08:46:12;;;;;;;62.17;5.47;;;;;;;;;;5117804;28;20442;-67
2022/08/18 08:48:43;;;;;;;63.23;4.47;;;;;;;;;;5117483;28;20429;-67
2022/08/18 08:51:34;;;;;;;61.47;5.23;;;;;;;;;;5117218;28;20500;-67
2022/08/18 08:54:04;;;;;;;64.80;5.50;;;;;;;;;;5095805;27;20465;-67
2022/08/18 08:56:34;;;;;;;62.67;5.23;;;;;;;;;;5115418;28;20536;-66
2022/08/18 08:59:04;;;;;;;60.67;4.87;;;;;;;;;;5116135;28;20446;-68
2022/08/18 09:01:35;;;;;;;59.63;4.90;;;;;;;;;;5116488;28;20485;-67
2022/08/18 09:04:06;;;;;;;60.03;4.70;;;;;;;;;;5116402;28;20460;-67
2022/08/18 09:06:37;;;;;;;58.77;3.90;;;;;;;;;;5117080;28;20538;-67
2022/08/18 09:09:13;;;;;;;59.67;4.00;;;;;;;;;;5116843;28;20445;-67
2022/08/18 09:12:06;;;;;;;60.40;4.50;;;;;;;;;;5116730;28;20471;-67
2022/08/18 09:14:48;;;;;;;60.97;4.30;;;;;;;;;;5116518;28;20449;-66
2022/08/18 09:17:25;;;;;;;60.07;5.20;;;;;;;;;;5117374;28;20536;-67
2022/08/18 09:19:59;;;;;;;62.80;5.40;;;;;;;;;;5116428;28;20830;-67
2022/08/18 09:22:29;;;;;;;60.40;4.63;;;;;;;;;;5117108;28;20560;-67
2022/08/18 09:24:57;;;;;;;60.73;4.60;;;;;;;;;;5116780;28;20536;-67
2022/08/18 09:27:31;;;;;;;58.97;3.60;;;;;;;;;;5116142;28;20536;-67
2022/08/18 09:29:59;;;;;;;59.90;4.57;;;;;;;;;;5115869;28;20879;-67
2022/08/18 09:32:56;;;;;;;60.60;5.33;;;;;;;;;;5115715;28;20466;-67
2022/08/18 09:35:35;;;;;;;60.17;4.03;;;;;;;;;;5032807;28;20445;-67
2022/08/18 09:43:53;;;;;;;59.60;4.90;;;;;;;;;;5115298;28;20417;-67
2022/08/18 09:46:50;;;;;;;59.60;4.43;;;;;;;;;;5115150;28;20438;-67
2022/08/18 09:49:40;;;;;;;62.97;5.23;;;;;;;;;;5114034;28;20447;-67
2022/08/18 09:52:22;;;;;;;61.00;4.17;;;;;;;;;;5114543;28;20554;-68
2022/08/18 09:54:52;;;;;;;60.27;4.73;;;;;;;;;;5113168;28;20461;-68
2022/08/18 09:57:24;;;;;;;59.50;4.43;;;;;;;;;;5113573;28;20532;-67
2022/08/18 09:59:55;;;;;;;64.00;5.47;;;;;;;;;;5112753;28;20524;-67
2022/08/18 10:02:41;;;;;;;60.07;4.53;;;;;;;;;;5112943;28;20499;-67
2022/08/18 10:05:26;;;;;;;61.27;4.93;;;;;;;;;;5113840;28;20534;-68
2022/08/18 10:07:55;;;;;;;60.30;4.50;;;;;;;;;;5113086;28;20492;-67
2022/08/18 10:10:26;;;;;;;60.60;4.87;;;;;;;;;;5113278;28;20502;-67
2022/08/18 10:12:58;;;;;;;59.17;4.00;;;;;;;;;;5112236;28;20457;-68
2022/08/18 10:15:34;;;;;;;59.70;4.57;;;;;;;;;;5112359;28;20458;-68
2022/08/18 10:18:22;;;;;;;59.70;3.87;;;;;;;;;;5112519;28;20469;-69
2022/08/18 10:20:56;;;;;;;59.90;4.23;;;;;;;;;;5107354;28;20457;-68
2022/08/18 10:23:41;;;;;;;59.37;4.33;;;;;;;;;;5114297;28;21019;-68
2022/08/18 10:26:36;;;;;;;58.67;3.60;;;;;;;;;;5113898;28;20446;-68
2022/08/18 10:29:05;;;;;;;59.73;4.57;;;;;;;;;;5115503;28;20833;-68
2022/08/18 10:31:32;;;;;;;59.13;4.40;;;;;;;;;;5115698;28;20472;-68
2022/08/18 10:34:06;;;;;;;59.63;4.00;;;;;;;;;;5116170;28;20480;-67
2022/08/18 10:36:36;;;;;;;58.70;4.20;;;;;;;;;;5115598;28;20528;-68
2022/08/18 10:39:05;;;;;;;58.60;3.67;;;;;;;;;;5114484;28;20996;-68
2022/08/18 10:41:34;;;;;;;57.90;3.30;;;;;;;;;;5115626;28;20560;-68
2022/08/18 10:44:03;;;;;;;59.30;3.93;;;;;;;;;;5116397;28;20520;-68
2022/08/18 10:46:32;;;;;;;59.60;3.97;;;;;;;;;;5119785;28;20977;-68
2022/08/18 10:49:01;;;;;;;58.67;4.00;;;;;;;;;;5118734;28;20444;-68
2022/08/18 10:51:36;;;;;;;58.70;4.30;;;;;;;;;;5118822;28;20549;-68
2022/08/18 10:54:08;;;;;;;58.50;3.57;;;;;;;;;;5119329;28;20481;-68
2022/08/18 10:56:44;;;;;;;60.00;4.53;;;;;;;;;;5119300;28;21004;-68
2022/08/18 10:59:17;;;;;;;59.83;4.50;;;;;;;;;;5119255;28;20476;-68
2022/08/18 11:01:54;;;;;;;58.50;3.63;;;;;;;;;;5119459;28;20549;-67
2022/08/18 11:04:27;;;;;;;58.87;4.57;;;;;;;;;;5119367;28;20463;-69
2022/08/18 11:06:57;;;;;;;59.33;5.13;;;;;;;;;;5117612;28;20545;-68
2022/08/18 11:09:26;;;;;;;59.17;4.77;;;;;;;;;;5116763;28;20929;-68
2022/08/18 11:11:55;;;;;;;59.27;4.63;;;;;;;;;;5117232;28;20458;-67
2022/08/18 11:14:40;;;;;;;58.60;4.30;;;;;;;;;;5117553;28;20612;-69
2022/08/18 11:17:12;;;;;;;59.83;4.40;;;;;;;;;;5116897;28;20473;-68
2022/08/18 11:19:41;;;;;;;59.87;5.20;;;;;;;;;;5118494;28;20541;-68
2022/08/18 11:22:21;;;;;;;59.27;5.20;;;;;;;;;;5119724;28;20580;-68
2022/08/18 11:24:48;;;;;;;58.70;4.90;;;;;;;;;;5118467;28;21021;-68
2022/08/18 11:27:19;;;;;;;59.50;4.40;;;;;;;;;;5116503;28;20445;-67
2022/08/18 11:29:46;;;;;;;58.90;4.10;;;;;;;;;;5117297;28;20477;-68
2022/08/18 11:32:17;;;;;;;59.77;5.07;;;;;;;;;;5118491;28;20461;-68
2022/08/18 11:34:46;;;;;;;59.77;4.50;;;;;;;;;;5117366;28;20445;-68
2022/08/18 11:37:22;;;;;;;60.47;4.50;;;;;;;;;;5117744;28;20540;-68
2022/08/18 11:39:51;;;;;;;59.37;4.40;;;;;;;;;;5117709;28;20474;-67
2022/08/18 11:42:20;;;;;;;60.37;5.10;;;;;;;;;;5118129;28;20477;-67
2022/08/18 11:44:47;;;;;;;61.43;5.20;;;;;;;;;;5117053;28;20906;-66
2022/08/18 11:47:17;;;;;;;59.47;4.20;;;;;;;;;;5115983;28;20446;-67
2022/08/18 11:49:55;;;;;;;60.27;4.47;;;;;;;;;;5115177;28;20444;-67
2022/08/18 11:52:24;;;;;;;60.27;4.83;;;;;;;;;;5117505;28;20548;-67
2022/08/18 11:54:52;;;;;;;58.90;4.07;;;;;;;;;;5117084;28;20459;-68
2022/08/18 11:57:38;;;;;;;59.70;4.33;;;;;;;;;;5117090;28;20442;-67
2022/08/18 12:00:20;;;;;;;60.60;4.00;;;;;;;;;;5116971;28;20522;-68
2022/08/18 12:02:49;;;;;;;59.07;4.50;;;;;;;;;;5115945;28;20489;-67
2022/08/18 12:05:16;;;;;;;59.70;4.43;;;;;;;;;;5118032;28;20468;-68
2022/08/18 12:07:43;;;;;;;58.70;4.30;;;;;;;;;;5118129;28;20958;-67
2022/08/18 12:10:16;;;;;;;58.77;3.73;;;;;;;;;;5118037;28;20441;-68
2022/08/18 12:12:46;;;;;;;60.17;4.67;;;;;;;;;;5117800;28;21353;-67
2022/08/18 12:15:25;;;;;;;59.00;4.27;;;;;;;;;;5117508;28;20442;-68
2022/08/18 12:17:54;;;;;;;58.67;4.27;;;;;;;;;;5118773;28;20532;-68
2022/08/18 12:20:21;;;;;;;59.23;4.70;;;;;;;;;;5117231;28;20446;-68
2022/08/18 12:22:49;;;;;;;58.57;4.40;;;;;;;;;;5117664;28;20491;-66
2022/08/18 12:25:17;;;;;;;58.90;4.53;;;;;;;;;;5116167;28;20551;-68
2022/08/18 12:27:44;;;;;;;58.20;3.50;;;;;;;;;;5117423;28;20445;-67
2022/08/18 12:30:12;;;;;;;59.27;4.70;;;;;;;;;;5116174;28;20451;-67
2022/08/18 12:32:40;;;;;;;59.00;4.60;;;;;;;;;;5117747;28;20465;-68
2022/08/18 12:35:10;;;;;;;60.80;4.00;;;;;;;;;;5117773;28;20524;-67
2022/08/18 12:37:38;;;;;;;59.60;4.50;;;;;;;;;;5117626;28;20503;-68
2022/08/18 12:40:07;;;;;;;59.07;4.30;;;;;;;;;;5117042;28;20535;-68
2022/08/18 12:42:34;;;;;;;60.77;4.77;;;;;;;;;;5117202;28;20568;-67
2022/08/18 12:45:01;;;;;;;58.00;4.00;;;;;;;;;;5117124;28;20468;-67
2022/08/18 12:47:29;;;;;;;59.00;4.50;;;;;;;;;;5116585;28;21024;-67
2022/08/18 12:49:56;;;;;;;58.90;4.57;;;;;;;;;;5117317;28;20824;-67
2022/08/18 12:52:24;;;;;;;58.77;4.53;;;;;;;;;;5115992;28;20552;-67
2022/08/18 12:54:51;;;;;;;58.97;4.20;;;;;;;;;;5115648;28;20552;-68
2022/08/18 12:57:20;;;;;;;60.63;6.30;;;;;;;;;;5114363;28;20528;-68
2022/08/18 12:59:48;;;;;;;58.80;4.60;;;;;;;;;;5113997;28;20452;-67
2022/08/18 13:02:15;;;;;;;58.70;4.07;;;;;;;;;;5114855;28;20472;-68
2022/08/18 13:04:43;;;;;;;58.87;4.47;;;;;;;;;;5115233;28;20446;-68
2022/08/18 13:07:11;;;;;;;58.80;4.70;;;;;;;;;;5114164;28;20473;-67
2022/08/18 13:09:40;;;;;;;58.63;3.80;;;;;;;;;;5113911;28;21028;-67
2022/08/18 13:12:08;;;;;;;59.40;4.20;;;;;;;;;;5116130;28;20504;-68
2022/08/18 13:14:36;;;;;;;58.27;3.90;;;;;;;;;;5114948;28;20934;-67
2022/08/18 13:17:03;;;;;;;59.53;3.73;;;;;;;;;;5114745;28;20449;-68
2022/08/18 13:19:31;;;;;;;57.70;3.50;;;;;;;;;;5116417;28;20442;-68
2022/08/18 13:21:59;;;;;;;58.27;3.90;;;;;;;;;;5118308;28;20509;-68
2022/08/18 13:24:26;;;;;;;58.90;3.67;;;;;;;;;;5117310;28;20489;-67
2022/08/18 13:26:55;;;;;;;58.73;4.27;;;;;;;;;;5115271;28;20441;-67
2022/08/18 13:29:22;;;;;;;58.40;3.73;;;;;;;;;;5115856;28;20548;-67
2022/08/18 13:31:54;;;;;;;59.80;4.50;;;;;;;;;;5115255;28;20526;-67
2022/08/18 13:34:22;;;;;;;59.20;4.27;;;;;;;;;;5117054;28;20450;-67
2022/08/18 13:36:49;;;;;;;59.80;3.97;;;;;;;;;;5116042;28;20449;-68
2022/08/18 13:39:17;;;;;;;59.90;3.90;;;;;;;;;;5115391;28;20988;-67
2022/08/18 13:41:45;;;;;;;58.30;3.97;;;;;;;;;;5116310;28;20469;-67
2022/08/18 13:44:16;;;;;;;60.20;4.90;;;;;;;;;;5116069;28;20478;-67
2022/08/18 13:46:45;;;;;;;61.30;3.70;;;;;;;;;;5116341;28;20506;-67
2022/08/18 13:49:12;;;;;;;58.17;3.53;;;;;;;;;;5115104;28;21118;-67
2022/08/18 13:51:41;;;;;;;58.93;4.17;;;;;;;;;;5116087;28;20470;-68
2022/08/18 13:54:09;;;;;;;59.03;3.40;;;;;;;;;;5116320;28;20484;-67
2022/08/18 13:56:36;;;;;;;58.40;4.10;;;;;;;;;;5115329;28;20437;-68
2022/08/18 13:59:04;;;;;;;59.50;4.00;;;;;;;;;;5113109;28;20445;-68
2022/08/18 14:01:33;;;;;;;57.83;3.50;;;;;;;;;;5115915;28;20461;-68
2022/08/18 14:04:00;;;;;;;59.00;4.20;;;;;;;;;;5116012;28;20486;-68
2022/08/18 14:06:27;;;;;;;59.30;4.07;;;;;;;;;;5115701;28;20449;-67
2022/08/18 14:08:54;;;;;;;58.60;4.17;;;;;;;;;;5115211;28;20452;-67
2022/08/18 14:11:24;;;;;;;59.27;4.37;;;;;;;;;;5115271;28;20464;-67
2022/08/18 14:13:52;;;;;;;58.70;4.40;;;;;;;;;;5114942;28;20442;-67
2022/08/18 14:16:20;;;;;;;58.50;3.80;;;;;;;;;;5113995;28;20511;-66
2022/08/18 14:26:47;;;;;;;61.13;3.90;;;;;;;;;;5113495;28;20446;-68
2022/08/18 14:27:19;;;;;;;58.47;3.47;;;;;;;;;;5114751;28;20428;-68
2022/08/18 14:29:47;;;;;;;59.20;4.30;;;;;;;;;;5115588;28;20456;-67
2022/08/18 14:32:15;;;;;;;59.07;4.00;;;;;;;;;;5116457;28;20466;-68
2022/08/18 14:34:44;;;;;;;58.93;4.17;;;;;;;;;;5116155;28;20449;-67
2022/08/18 14:37:11;;;;;;;59.33;4.47;;;;;;;;;;5115183;28;20484;-68
2022/08/18 14:39:38;;;;;;;60.93;3.70;;;;;;;;;;5114950;28;20802;-67
2022/08/18 14:42:05;;;;;;;59.43;3.87;;;;;;;;;;5114842;28;20465;-68
2022/08/18 14:44:33;;;;;;;59.70;4.60;;;;;;;;;;5115958;28;20478;-67
2022/08/18 14:47:00;;;;;;;59.00;3.83;;;;;;;;;;5116070;28;20515;-68
2022/08/18 14:49:30;;;;;;;58.70;3.93;;;;;;;;;;5115960;28;20536;-68
2022/08/18 14:51:59;;;;;;;57.87;3.60;;;;;;;;;;5116271;28;20465;-67
2022/08/18 14:54:26;;;;;;;58.63;4.27;;;;;;;;;;5113983;28;21005;-68
2022/08/18 14:56:53;;;;;;;58.57;3.73;;;;;;;;;;5114696;28;20454;-67
2022/08/18 14:59:21;;;;;;;58.33;3.57;;;;;;;;;;5113584;28;20441;-67
2022/08/18 15:01:49;;;;;;;58.07;3.80;;;;;;;;;;5115069;28;20557;-67
2022/08/18 15:04:16;;;;;;;58.93;4.90;;;;;;;;;;5114563;28;20489;-67
2022/08/18 15:06:43;;;;;;;59.47;4.10;;;;;;;;;;5114084;28;20933;-67
2022/08/18 15:09:11;;;;;;;59.27;4.90;;;;;;;;;;5114121;28;20460;-67
2022/08/18 15:11:38;;;;;;;58.97;4.50;;;;;;;;;;5113893;28;20461;-66